createdAt,value
2023-02-09T00:00:13.279Z,1029.20
2023-02-09T00:01:13.139Z,1029.17
2023-02-09T00:02:13.200Z,1029.17
2023-02-09T00:03:13.203Z,1029.20
2023-02-09T00:04:13.167Z,1029.19
2023-02-09T00:05:13.133Z,1029.19
2023-02-09T00:06:13.130Z,1029.18
2023-02-09T00:07:13.131Z,1029.17
2023-02-09T00:08:13.127Z,1029.13
2023-02-09T00:09:13.127Z,1029.13
2023-02-09T00:10:13.126Z,1029.06
2023-02-09T00:11:13.128Z,1029.07
2023-02-09T00:12:13.126Z,1029.07
2023-02-09T00:13:13.132Z,1029.07
2023-02-09T00:14:13.131Z,1029.12
2023-02-09T00:15:13.120Z,1029.11
2023-02-09T00:16:13.164Z,1029.13
2023-02-09T00:17:13.124Z,1029.13
2023-02-09T00:18:13.125Z,1029.16
2023-02-09T00:19:13.117Z,1029.15
2023-02-09T00:20:13.144Z,1029.13
2023-02-09T00:21:13.125Z,1029.15
2023-02-09T00:22:13.112Z,1029.16
2023-02-09T00:23:13.116Z,1029.14
2023-02-09T00:24:13.121Z,1029.15
2023-02-09T00:25:13.118Z,1029.09
2023-02-09T00:26:13.108Z,1029.10
2023-02-09T00:27:13.114Z,1029.10
2023-02-09T00:28:13.153Z,1029.01
2023-02-09T00:29:13.118Z,1029.06
2023-02-09T00:30:13.110Z,1029.06
2023-02-09T00:31:13.155Z,1028.95
2023-02-09T00:32:13.162Z,1028.90
2023-02-09T00:33:13.103Z,1028.94
2023-02-09T00:34:13.108Z,1028.91
2023-02-09T00:35:13.095Z,1028.96
2023-02-09T00:36:13.140Z,1028.91
2023-02-09T00:37:13.095Z,1028.91
2023-02-09T00:38:13.099Z,1028.91
2023-02-09T00:39:13.088Z,1028.94
2023-02-09T00:40:13.098Z,1028.91
2023-02-09T00:41:13.086Z,1028.93
2023-02-09T00:42:13.094Z,1028.94
2023-02-09T00:43:13.091Z,1028.93
2023-02-09T00:44:13.115Z,1028.96
2023-02-09T00:45:13.090Z,1028.91
2023-02-09T00:46:13.147Z,1028.89
2023-02-09T00:47:13.092Z,1028.90
2023-02-09T00:48:13.087Z,1028.89
2023-02-09T00:49:13.093Z,1028.85
2023-02-09T00:50:13.078Z,1028.80
2023-02-09T00:51:13.084Z,1028.81
2023-02-09T00:52:13.101Z,1028.81
2023-02-09T00:53:13.079Z,1028.82
2023-02-09T00:54:13.078Z,1028.80
2023-02-09T00:55:13.074Z,1028.83
2023-02-09T00:56:13.077Z,1028.79
2023-02-09T00:57:13.074Z,1028.76
2023-02-09T00:58:13.071Z,1028.75
2023-02-09T00:59:13.066Z,1028.81
2023-02-09T01:00:13.061Z,1028.77
2023-02-09T01:01:13.120Z,1028.77
2023-02-09T01:02:13.067Z,1028.79
2023-02-09T01:03:13.083Z,1028.78
2023-02-09T01:04:13.244Z,1028.76
2023-02-09T01:05:13.058Z,1028.76
2023-02-09T01:06:13.079Z,1028.79
2023-02-09T01:07:13.061Z,1028.84
2023-02-09T01:08:13.076Z,1028.76
2023-02-09T01:09:13.049Z,1028.76
2023-02-09T01:10:13.060Z,1028.78
2023-02-09T01:11:13.053Z,1028.78
2023-02-09T01:12:13.064Z,1028.73
2023-02-09T01:13:13.042Z,1028.74
2023-02-09T01:14:13.047Z,1028.75
2023-02-09T01:15:13.053Z,1028.73
2023-02-09T01:16:13.062Z,1028.78
2023-02-09T01:17:13.040Z,1028.71
2023-02-09T01:18:13.037Z,1028.72
2023-02-09T01:19:13.041Z,1028.71
2023-02-09T01:20:13.041Z,1028.69
2023-02-09T01:21:13.039Z,1028.70
2023-02-09T01:22:13.032Z,1028.71
2023-02-09T01:23:13.028Z,1028.62
2023-02-09T01:24:13.060Z,1028.70
2023-02-09T01:25:13.031Z,1028.66
2023-02-09T01:26:13.034Z,1028.71
2023-02-09T01:27:13.026Z,1028.65
2023-02-09T01:28:13.068Z,1028.67
2023-02-09T01:29:13.035Z,1028.64
2023-02-09T01:30:13.038Z,1028.69
2023-02-09T01:31:13.202Z,1028.65
2023-02-09T01:32:13.090Z,1028.64
2023-02-09T01:33:13.023Z,1028.60
2023-02-09T01:34:13.022Z,1028.60
2023-02-09T01:35:13.034Z,1028.57
2023-02-09T01:36:13.022Z,1028.57
2023-02-09T01:37:13.019Z,1028.51
2023-02-09T01:38:13.010Z,1028.51
2023-02-09T01:39:13.019Z,1028.53
2023-02-09T01:40:13.045Z,1028.54
2023-02-09T01:41:13.013Z,1028.50
2023-02-09T01:42:13.006Z,1028.49
2023-02-09T01:43:13.011Z,1028.45
2023-02-09T01:44:13.057Z,1028.41
2023-02-09T01:45:13.013Z,1028.39
2023-02-09T01:46:13.077Z,1028.36
2023-02-09T01:47:13.008Z,1028.32
2023-02-09T01:48:13.007Z,1028.31
2023-02-09T01:49:13.009Z,1028.28
2023-02-09T01:50:12.996Z,1028.31
2023-02-09T01:51:12.996Z,1028.29
2023-02-09T01:52:13.007Z,1028.27
2023-02-09T01:53:13.001Z,1028.33
2023-02-09T01:54:12.991Z,1028.33
2023-02-09T01:55:13.000Z,1028.31
2023-02-09T01:56:13.015Z,1028.28
2023-02-09T01:57:12.988Z,1028.26
2023-02-09T01:58:12.987Z,1028.21
2023-02-09T01:59:12.996Z,1028.20
2023-02-09T02:00:12.987Z,1028.17
2023-02-09T02:01:13.066Z,1028.17
2023-02-09T02:02:13.053Z,1028.15
2023-02-09T02:03:12.989Z,1028.18
2023-02-09T02:04:12.994Z,1028.18
2023-02-09T02:05:12.978Z,1028.13
2023-02-09T02:06:12.985Z,1028.14
2023-02-09T02:07:12.980Z,1028.16
2023-02-09T02:08:13.001Z,1028.10
2023-02-09T02:09:12.987Z,1028.09
2023-02-09T02:10:12.979Z,1028.07
2023-02-09T02:11:12.978Z,1028.09
2023-02-09T02:12:12.998Z,1028.05
2023-02-09T02:13:12.971Z,1028.06
2023-02-09T02:14:12.967Z,1028.05
2023-02-09T02:15:12.969Z,1028.04
2023-02-09T02:16:13.031Z,1028.07
2023-02-09T02:17:12.957Z,1028.06
2023-02-09T02:18:12.957Z,1028.06
2023-02-09T02:19:12.953Z,1028.06
2023-02-09T02:20:12.965Z,1028.02
2023-02-09T02:21:12.957Z,1028.07
2023-02-09T02:22:12.952Z,1028.05
2023-02-09T02:23:12.947Z,1028.03
2023-02-09T02:24:12.945Z,1028.00
2023-02-09T02:25:12.956Z,1028.01
2023-02-09T02:26:12.956Z,1028.00
2023-02-09T02:27:12.950Z,1028.01
2023-02-09T02:28:13.011Z,1027.98
2023-02-09T02:29:12.939Z,1028.00
2023-02-09T02:30:12.938Z,1027.97
2023-02-09T02:31:13.168Z,1027.95
2023-02-09T02:32:12.948Z,1027.99
2023-02-09T02:33:12.940Z,1027.98
2023-02-09T02:34:12.941Z,1027.98
2023-02-09T02:35:12.941Z,1027.95
2023-02-09T02:36:12.936Z,1027.98
2023-02-09T02:37:12.933Z,1027.93
2023-02-09T02:38:12.925Z,1027.89
2023-02-09T02:39:12.931Z,1027.92
2023-02-09T02:40:12.923Z,1027.85
2023-02-09T02:41:12.919Z,1027.85
2023-02-09T02:42:12.925Z,1027.82
2023-02-09T02:43:12.925Z,1027.86
2023-02-09T02:44:12.941Z,1027.85
2023-02-09T02:45:12.915Z,1027.84
2023-02-09T02:46:13.001Z,1027.87
2023-02-09T02:47:12.916Z,1027.86
2023-02-09T02:48:12.922Z,1027.80
2023-02-09T02:49:15.140Z,1027.84
2023-02-09T02:50:12.927Z,1027.82
2023-02-09T02:51:12.921Z,1027.81
2023-02-09T02:52:12.924Z,1027.80
2023-02-09T02:53:12.917Z,1027.80
2023-02-09T02:54:12.917Z,1027.80
2023-02-09T02:55:12.909Z,1027.80
2023-02-09T02:56:12.914Z,1027.83
2023-02-09T02:57:12.911Z,1027.81
2023-02-09T02:58:12.912Z,1027.83
2023-02-09T02:59:12.903Z,1027.79
2023-02-09T03:00:12.923Z,1027.75
2023-02-09T03:01:12.927Z,1027.75
2023-02-09T03:02:12.906Z,1027.73
2023-02-09T03:03:12.914Z,1027.72
2023-02-09T03:04:12.906Z,1027.70
2023-02-09T03:05:12.941Z,1027.68
2023-02-09T03:06:12.894Z,1027.70
2023-02-09T03:07:12.901Z,1027.67
2023-02-09T03:08:12.897Z,1027.68
2023-02-09T03:09:12.896Z,1027.66
2023-02-09T03:10:12.896Z,1027.67
2023-02-09T03:11:12.888Z,1027.66
2023-02-09T03:12:12.885Z,1027.63
2023-02-09T03:13:12.897Z,1027.58
2023-02-09T03:14:12.892Z,1027.55
2023-02-09T03:15:12.893Z,1027.57
2023-02-09T03:16:13.008Z,1027.53
2023-02-09T03:17:12.886Z,1027.59
2023-02-09T03:18:12.881Z,1027.52
2023-02-09T03:19:12.881Z,1027.51
2023-02-09T03:20:12.882Z,1027.51
2023-02-09T03:21:12.879Z,1027.50
2023-02-09T03:22:12.884Z,1027.44
2023-02-09T03:23:12.868Z,1027.45
2023-02-09T03:24:12.874Z,1027.44
2023-02-09T03:25:12.866Z,1027.48
2023-02-09T03:26:12.885Z,1027.51
2023-02-09T03:27:12.867Z,1027.51
2023-02-09T03:28:12.942Z,1027.51
2023-02-09T03:29:12.860Z,1027.50
2023-02-09T03:30:12.878Z,1027.46
2023-02-09T03:31:13.030Z,1027.50
2023-02-09T03:32:12.883Z,1027.48
2023-02-09T03:33:12.854Z,1027.50
2023-02-09T03:34:12.859Z,1027.49
2023-02-09T03:35:12.858Z,1027.50
2023-02-09T03:36:12.852Z,1027.43
2023-02-09T03:37:12.854Z,1027.42
2023-02-09T03:38:12.856Z,1027.44
2023-02-09T03:39:12.845Z,1027.44
2023-02-09T03:40:12.853Z,1027.42
2023-02-09T03:41:12.841Z,1027.43
2023-02-09T03:42:12.853Z,1027.39
2023-02-09T03:43:12.836Z,1027.44
2023-02-09T03:44:12.847Z,1027.41
2023-02-09T03:45:12.847Z,1027.42
2023-02-09T03:46:12.917Z,1027.39
2023-02-09T03:47:12.844Z,1027.40
2023-02-09T03:48:12.860Z,1027.35
2023-02-09T03:49:12.831Z,1027.39
2023-02-09T03:50:12.841Z,1027.42
2023-02-09T03:51:12.854Z,1027.42
2023-02-09T03:52:12.852Z,1027.46
2023-02-09T03:53:12.838Z,1027.43
2023-02-09T03:54:12.866Z,1027.41
2023-02-09T03:55:12.827Z,1027.40
2023-02-09T03:56:12.824Z,1027.40
2023-02-09T03:57:12.817Z,1027.38
2023-02-09T03:58:12.814Z,1027.34
2023-02-09T03:59:12.817Z,1027.36
2023-02-09T04:00:12.815Z,1027.39
2023-02-09T04:01:12.903Z,1027.37
2023-02-09T04:02:12.989Z,1027.38
2023-02-09T04:03:12.815Z,1027.31
2023-02-09T04:04:12.825Z,1027.34
2023-02-09T04:05:12.821Z,1027.34
2023-02-09T04:06:12.807Z,1027.35
2023-02-09T04:07:12.806Z,1027.32
2023-02-09T04:08:12.799Z,1027.35
2023-02-09T04:09:12.795Z,1027.33
2023-02-09T04:10:12.809Z,1027.38
2023-02-09T04:11:12.798Z,1027.34
2023-02-09T04:12:12.798Z,1027.39
2023-02-09T04:13:12.796Z,1027.38
2023-02-09T04:14:12.796Z,1027.38
2023-02-09T04:15:12.801Z,1027.39
2023-02-09T04:16:12.852Z,1027.43
2023-02-09T04:17:12.786Z,1027.41
2023-02-09T04:18:12.786Z,1027.43
2023-02-09T04:19:12.788Z,1027.42
2023-02-09T04:20:12.816Z,1027.41
2023-02-09T04:21:12.783Z,1027.40
2023-02-09T04:22:12.785Z,1027.35
2023-02-09T04:23:12.784Z,1027.39
2023-02-09T04:24:12.783Z,1027.37
2023-02-09T04:25:12.775Z,1027.38
2023-02-09T04:26:12.772Z,1027.37
2023-02-09T04:27:12.778Z,1027.35
2023-02-09T04:28:12.816Z,1027.35
2023-02-09T04:29:12.770Z,1027.32
2023-02-09T04:30:12.766Z,1027.30
2023-02-09T04:31:12.947Z,1027.33
2023-02-09T04:32:12.827Z,1027.33
2023-02-09T04:33:12.772Z,1027.36
2023-02-09T04:34:12.762Z,1027.36
2023-02-09T04:35:12.776Z,1027.36
2023-02-09T04:36:12.788Z,1027.35
2023-02-09T04:37:12.762Z,1027.30
2023-02-09T04:38:12.761Z,1027.31
2023-02-09T04:39:12.767Z,1027.32
2023-02-09T04:40:12.822Z,1027.32
2023-02-09T04:41:12.762Z,1027.29
2023-02-09T04:42:12.762Z,1027.32
2023-02-09T04:43:12.760Z,1027.31
2023-02-09T04:44:12.768Z,1027.31
2023-02-09T04:45:12.756Z,1027.26
2023-02-09T04:46:12.859Z,1027.25
2023-02-09T04:47:12.754Z,1027.24
2023-02-09T04:48:12.744Z,1027.23
2023-02-09T04:49:12.754Z,1027.23
2023-02-09T04:50:12.752Z,1027.19
2023-02-09T04:51:12.748Z,1027.22
2023-02-09T04:52:12.767Z,1027.20
2023-02-09T04:53:12.745Z,1027.19
2023-02-09T04:54:12.754Z,1027.21
2023-02-09T04:55:12.744Z,1027.24
2023-02-09T04:56:14.937Z,1027.22
2023-02-09T04:57:12.738Z,1027.22
2023-02-09T04:58:12.730Z,1027.25
2023-02-09T04:59:12.736Z,1027.24
2023-02-09T05:00:12.735Z,1027.28
2023-02-09T05:01:12.749Z,1027.25
2023-02-09T05:02:12.722Z,1027.28
2023-02-09T05:03:12.756Z,1027.27
2023-02-09T05:04:12.725Z,1027.24
2023-02-09T05:05:12.732Z,1027.25
2023-02-09T05:06:12.722Z,1027.27
2023-02-09T05:07:12.723Z,1027.25
2023-02-09T05:08:12.741Z,1027.31
2023-02-09T05:09:12.719Z,1027.33
2023-02-09T05:10:12.719Z,1027.34
2023-02-09T05:11:12.720Z,1027.29
2023-02-09T05:12:12.712Z,1027.27
2023-02-09T05:13:12.713Z,1027.28
2023-02-09T05:14:12.716Z,1027.32
2023-02-09T05:15:12.710Z,1027.24
2023-02-09T05:16:12.740Z,1027.26
2023-02-09T05:17:12.699Z,1027.23
2023-02-09T05:18:12.705Z,1027.24
2023-02-09T05:19:12.697Z,1027.20
2023-02-09T05:20:12.702Z,1027.21
2023-02-09T05:21:12.691Z,1027.18
2023-02-09T05:22:12.699Z,1027.20
2023-02-09T05:23:12.696Z,1027.23
2023-02-09T05:24:12.716Z,1027.24
2023-02-09T05:25:12.685Z,1027.19
2023-02-09T05:26:12.706Z,1027.21
2023-02-09T05:27:12.696Z,1027.26
2023-02-09T05:28:12.813Z,1027.22
2023-02-09T05:29:12.679Z,1027.22
2023-02-09T05:30:12.681Z,1027.15
2023-02-09T05:31:12.767Z,1027.11
2023-02-09T05:32:12.718Z,1027.08
2023-02-09T05:33:12.681Z,1027.10
2023-02-09T05:34:12.679Z,1027.15
2023-02-09T05:35:12.673Z,1027.15
2023-02-09T05:36:12.695Z,1027.16
2023-02-09T05:37:12.670Z,1027.12
2023-02-09T05:38:12.665Z,1027.14
2023-02-09T05:39:12.664Z,1027.12
2023-02-09T05:40:13.902Z,1027.11
2023-02-09T05:41:12.675Z,1027.13
2023-02-09T05:42:12.663Z,1027.10
2023-02-09T05:43:12.663Z,1027.14
2023-02-09T05:44:12.682Z,1027.08
2023-02-09T05:45:12.679Z,1027.06
2023-02-09T05:46:12.707Z,1027.05
2023-02-09T05:47:12.652Z,1027.07
2023-02-09T05:48:12.652Z,1027.08
2023-02-09T05:49:12.648Z,1027.09
2023-02-09T05:50:12.654Z,1027.08
2023-02-09T05:51:12.652Z,1027.09
2023-02-09T05:52:12.650Z,1027.08
2023-02-09T05:53:14.425Z,1027.17
2023-02-09T05:54:12.640Z,1027.19
2023-02-09T05:55:12.637Z,1027.15
2023-02-09T05:56:12.682Z,1027.11
2023-02-09T05:57:12.656Z,1027.10
2023-02-09T05:58:12.631Z,1027.03
2023-02-09T05:59:12.639Z,1027.06
2023-02-09T06:00:12.663Z,1027.03
2023-02-09T06:01:12.636Z,1027.05
2023-02-09T06:02:12.662Z,1027.01
2023-02-09T06:03:12.689Z,1027.08
2023-02-09T06:04:12.620Z,1027.04
2023-02-09T06:05:12.620Z,1026.98
2023-02-09T06:06:12.627Z,1027.03
2023-02-09T06:07:12.624Z,1026.99
2023-02-09T06:08:12.628Z,1027.01
2023-02-09T06:09:12.621Z,1027.01
2023-02-09T06:10:12.618Z,1027.01
2023-02-09T06:11:12.618Z,1026.96
2023-02-09T06:12:12.628Z,1026.97
2023-02-09T06:13:12.609Z,1026.97
2023-02-09T06:14:12.611Z,1026.94
2023-02-09T06:15:12.612Z,1027.00
2023-02-09T06:16:12.622Z,1026.93
2023-02-09T06:17:12.607Z,1027.01
2023-02-09T06:18:12.598Z,1026.98
2023-02-09T06:19:12.621Z,1026.99
2023-02-09T06:20:12.596Z,1027.00
2023-02-09T06:21:12.603Z,1026.94
2023-02-09T06:22:12.593Z,1026.96
2023-02-09T06:23:12.600Z,1026.92
2023-02-09T06:24:12.608Z,1026.95
2023-02-09T06:25:12.595Z,1026.97
2023-02-09T06:26:12.593Z,1027.02
2023-02-09T06:27:12.585Z,1026.99
2023-02-09T06:28:12.650Z,1026.96
2023-02-09T06:29:12.601Z,1027.00
2023-02-09T06:30:12.590Z,1026.98
2023-02-09T06:31:12.739Z,1027.01
2023-02-09T06:32:12.734Z,1027.06
2023-02-09T06:33:12.585Z,1027.01
2023-02-09T06:34:12.585Z,1027.08
2023-02-09T06:35:12.574Z,1027.05
2023-02-09T06:36:12.586Z,1027.03
2023-02-09T06:37:12.579Z,1027.00
2023-02-09T06:38:12.581Z,1027.03
2023-02-09T06:39:12.577Z,1027.01
2023-02-09T06:40:12.575Z,1026.98
2023-02-09T06:41:12.572Z,1026.97
2023-02-09T06:42:12.570Z,1026.93
2023-02-09T06:43:12.565Z,1026.98
2023-02-09T06:44:12.588Z,1026.95
2023-02-09T06:45:12.578Z,1026.96
2023-02-09T06:46:12.608Z,1026.97
2023-02-09T06:47:12.563Z,1027.02
2023-02-09T06:48:12.576Z,1027.05
2023-02-09T06:49:12.557Z,1027.12
2023-02-09T06:50:12.564Z,1027.14
2023-02-09T06:51:12.565Z,1027.18
2023-02-09T06:52:12.557Z,1027.24
2023-02-09T06:53:12.565Z,1027.27
2023-02-09T06:54:12.554Z,1027.32
2023-02-09T06:55:12.553Z,1027.33
2023-02-09T06:56:12.552Z,1027.30
2023-02-09T06:57:12.544Z,1027.28
2023-02-09T06:58:12.539Z,1027.26
2023-02-09T06:59:12.539Z,1027.25
2023-02-09T07:00:12.574Z,1027.24
2023-02-09T07:01:12.642Z,1027.22
2023-02-09T07:02:12.544Z,1027.18
2023-02-09T07:03:12.540Z,1027.20
2023-02-09T07:04:12.538Z,1027.17
2023-02-09T07:05:12.541Z,1027.18
2023-02-09T07:06:12.543Z,1027.15
2023-02-09T07:07:12.534Z,1027.20
2023-02-09T07:08:12.524Z,1027.18
2023-02-09T07:09:12.538Z,1027.16
2023-02-09T07:10:12.528Z,1027.20
2023-02-09T07:11:12.532Z,1027.21
2023-02-09T07:12:12.522Z,1027.21
2023-02-09T07:13:12.528Z,1027.24
2023-02-09T07:14:12.525Z,1027.20
2023-02-09T07:15:12.516Z,1027.20
2023-02-09T07:16:12.602Z,1027.16
2023-02-09T07:17:12.515Z,1027.12
2023-02-09T07:18:12.515Z,1027.16
2023-02-09T07:19:12.510Z,1027.07
2023-02-09T07:20:12.522Z,1027.14
2023-02-09T07:21:12.506Z,1027.17
2023-02-09T07:22:12.509Z,1027.17
2023-02-09T07:23:12.531Z,1027.19
2023-02-09T07:24:12.511Z,1027.14
2023-02-09T07:25:12.499Z,1027.15
2023-02-09T07:26:12.504Z,1027.13
2023-02-09T07:27:12.502Z,1027.18
2023-02-09T07:28:12.601Z,1027.18
2023-02-09T07:29:13.028Z,1027.21
2023-02-09T07:30:12.494Z,1027.15
2023-02-09T07:31:12.715Z,1027.15
2023-02-09T07:32:12.533Z,1027.13
2023-02-09T07:33:12.491Z,1027.15
2023-02-09T07:34:12.498Z,1027.11
2023-02-09T07:35:12.507Z,1027.09
2023-02-09T07:36:12.492Z,1027.06
2023-02-09T07:37:12.487Z,1027.04
2023-02-09T07:38:12.497Z,1027.00
2023-02-09T07:39:12.486Z,1026.99
2023-02-09T07:40:12.490Z,1026.96
2023-02-09T07:41:12.492Z,1026.88
2023-02-09T07:42:12.496Z,1026.86
2023-02-09T07:43:12.492Z,1026.86
2023-02-09T07:44:12.504Z,1026.86
2023-02-09T07:45:12.491Z,1026.86
2023-02-09T07:46:12.522Z,1026.83
2023-02-09T07:47:12.485Z,1026.90
2023-02-09T07:48:12.509Z,1026.86
2023-02-09T07:49:12.500Z,1026.82
2023-02-09T07:50:12.498Z,1026.89
2023-02-09T07:51:12.497Z,1026.88
2023-02-09T07:52:12.489Z,1026.86
2023-02-09T07:53:12.489Z,1026.88
2023-02-09T07:54:12.496Z,1026.87
2023-02-09T07:55:12.499Z,1026.83
2023-02-09T07:56:12.497Z,1026.84
2023-02-09T07:57:12.499Z,1026.88
2023-02-09T07:58:12.501Z,1026.88
2023-02-09T07:59:12.496Z,1026.86
2023-02-09T08:00:12.497Z,1026.87
2023-02-09T08:01:12.502Z,1026.85
2023-02-09T08:02:12.513Z,1026.82
2023-02-09T08:03:12.511Z,1026.79
2023-02-09T08:04:12.539Z,1026.83
2023-02-09T08:05:12.541Z,1026.81
2023-02-09T08:06:12.514Z,1026.74
2023-02-09T08:07:12.517Z,1026.69
2023-02-09T08:08:12.514Z,1026.69
2023-02-09T08:09:12.517Z,1026.71
2023-02-09T08:10:12.528Z,1026.63
2023-02-09T08:11:12.539Z,1026.57
2023-02-09T08:12:12.562Z,1026.60
2023-02-09T08:13:12.563Z,1026.60
2023-02-09T08:14:12.529Z,1026.54
2023-02-09T08:15:12.537Z,1026.57
2023-02-09T08:16:12.609Z,1026.52
2023-02-09T08:17:12.536Z,1026.53
2023-02-09T08:18:13.151Z,1026.53
2023-02-09T08:19:12.542Z,1026.48
2023-02-09T08:20:12.575Z,1026.51
2023-02-09T08:21:12.556Z,1026.48
2023-02-09T08:22:12.569Z,1026.43
2023-02-09T08:23:12.564Z,1026.34
2023-02-09T08:24:12.562Z,1026.36
2023-02-09T08:25:12.569Z,1026.37
2023-02-09T08:26:12.572Z,1026.30
2023-02-09T08:27:12.573Z,1026.32
2023-02-09T08:28:12.643Z,1026.28
2023-02-09T08:29:12.585Z,1026.39
2023-02-09T08:30:12.579Z,1026.46
2023-02-09T08:31:12.722Z,1026.38
2023-02-09T08:32:12.726Z,1026.51
2023-02-09T08:33:12.598Z,1026.49
2023-02-09T08:34:12.600Z,1026.48
2023-02-09T08:35:12.594Z,1026.48
2023-02-09T08:36:12.630Z,1026.48
2023-02-09T08:37:12.618Z,1026.54
2023-02-09T08:38:12.624Z,1026.51
2023-02-09T08:39:12.624Z,1026.45
2023-02-09T08:40:12.614Z,1026.47
2023-02-09T08:41:12.625Z,1026.45
2023-02-09T08:42:12.619Z,1026.41
2023-02-09T08:43:12.623Z,1026.39
2023-02-09T08:44:12.625Z,1026.38
2023-02-09T08:45:12.652Z,1026.39
2023-02-09T08:46:12.826Z,1026.32
2023-02-09T08:47:12.644Z,1026.22
2023-02-09T08:48:12.642Z,1026.26
2023-02-09T08:49:12.647Z,1026.19
2023-02-09T08:50:12.649Z,1026.18
2023-02-09T08:51:12.653Z,1026.18
2023-02-09T08:52:12.692Z,1026.10
2023-02-09T08:53:12.674Z,1026.07
2023-02-09T08:54:12.673Z,1026.10
2023-02-09T08:55:12.683Z,1026.09
2023-02-09T08:56:12.678Z,1026.08
2023-02-09T08:57:12.692Z,1026.08
2023-02-09T08:58:12.681Z,1026.01
2023-02-09T08:59:12.691Z,1026.09
2023-02-09T09:00:12.697Z,1026.13
2023-02-09T09:01:12.742Z,1026.10
2023-02-09T09:02:12.705Z,1026.06
2023-02-09T09:03:12.704Z,1026.03
2023-02-09T09:04:12.714Z,1026.04
2023-02-09T09:05:12.714Z,1026.02
2023-02-09T09:06:12.722Z,1026.00
2023-02-09T09:07:12.730Z,1026.07
2023-02-09T09:08:12.776Z,1026.14
2023-02-09T09:09:12.740Z,1026.25
2023-02-09T09:10:12.898Z,1026.24
2023-02-09T09:11:12.868Z,1026.28
2023-02-09T09:12:12.751Z,1026.24
2023-02-09T09:13:12.750Z,1026.30
2023-02-09T09:14:12.758Z,1026.32
2023-02-09T09:15:12.841Z,1026.35
2023-02-09T09:16:12.841Z,1026.35
2023-02-09T09:17:12.774Z,1026.36
2023-02-09T09:18:12.770Z,1026.31
2023-02-09T09:19:12.786Z,1026.30
2023-02-09T09:20:12.792Z,1026.24
2023-02-09T09:21:12.826Z,1026.29
2023-02-09T09:22:12.800Z,1026.28
2023-02-09T09:23:12.803Z,1026.31
2023-02-09T09:24:12.850Z,1026.30
2023-02-09T09:25:12.815Z,1026.33
2023-02-09T09:26:12.828Z,1026.28
2023-02-09T09:27:12.817Z,1026.31
2023-02-09T09:28:12.872Z,1026.28
2023-02-09T09:29:12.842Z,1026.26
2023-02-09T09:30:12.834Z,1026.26
2023-02-09T09:31:12.916Z,1026.28
2023-02-09T09:32:13.073Z,1026.27
2023-02-09T09:33:12.962Z,1026.30
2023-02-09T09:34:12.880Z,1026.24
2023-02-09T09:35:12.870Z,1026.23
2023-02-09T09:36:12.893Z,1026.16
2023-02-09T09:37:12.875Z,1026.17
2023-02-09T09:38:12.880Z,1026.14
2023-02-09T09:39:12.894Z,1026.14
2023-02-09T09:40:12.921Z,1026.20
2023-02-09T09:41:12.899Z,1026.25
2023-02-09T09:42:12.911Z,1026.26
2023-02-09T09:43:12.918Z,1026.28
2023-02-09T09:44:12.928Z,1026.30
2023-02-09T09:45:12.929Z,1026.33
2023-02-09T09:46:13.018Z,1026.28
2023-02-09T09:47:12.942Z,1026.32
2023-02-09T09:48:12.940Z,1026.28
2023-02-09T09:49:12.955Z,1026.25
2023-02-09T09:50:12.990Z,1026.27
2023-02-09T09:51:12.961Z,1026.23
2023-02-09T09:52:12.972Z,1026.21
2023-02-09T09:53:12.994Z,1026.19
2023-02-09T09:54:12.984Z,1026.18
2023-02-09T09:55:12.981Z,1026.09
2023-02-09T09:56:13.022Z,1026.11
2023-02-09T09:57:12.999Z,1026.13
2023-02-09T09:58:13.001Z,1026.11
2023-02-09T09:59:13.036Z,1026.08
2023-02-09T10:00:13.012Z,1026.08
2023-02-09T10:01:13.096Z,1026.15
2023-02-09T10:02:14.112Z,1026.17
2023-02-09T10:03:13.028Z,1026.17
2023-02-09T10:04:13.076Z,1026.17
2023-02-09T10:05:13.042Z,1026.12
2023-02-09T10:06:13.057Z,1026.15
2023-02-09T10:07:13.062Z,1026.17
2023-02-09T10:08:13.068Z,1026.13
2023-02-09T10:09:13.075Z,1026.16
2023-02-09T10:10:13.087Z,1026.16
2023-02-09T10:11:13.093Z,1026.19
2023-02-09T10:12:13.118Z,1026.21
2023-02-09T10:13:13.104Z,1026.21
2023-02-09T10:14:13.110Z,1026.23
2023-02-09T10:15:13.116Z,1026.20
2023-02-09T10:16:13.124Z,1026.19
2023-02-09T10:17:13.122Z,1026.18
2023-02-09T10:18:13.128Z,1026.16
2023-02-09T10:19:13.147Z,1026.17
2023-02-09T10:20:13.152Z,1026.18
2023-02-09T10:21:13.159Z,1026.17
2023-02-09T10:22:13.163Z,1026.25
2023-02-09T10:23:13.175Z,1026.27
2023-02-09T10:24:13.172Z,1026.27
2023-02-09T10:25:13.190Z,1026.27
2023-02-09T10:26:13.195Z,1026.29
2023-02-09T10:27:13.216Z,1026.32
2023-02-09T10:28:13.260Z,1026.26
2023-02-09T10:29:13.218Z,1026.32
2023-02-09T10:30:13.227Z,1026.23
2023-02-09T10:31:13.373Z,1026.28
2023-02-09T10:32:13.240Z,1026.22
2023-02-09T10:33:13.248Z,1026.21
2023-02-09T10:34:13.253Z,1026.16
2023-02-09T10:35:13.264Z,1026.16
2023-02-09T10:36:13.271Z,1026.18
2023-02-09T10:37:13.273Z,1026.23
2023-02-09T10:38:13.290Z,1026.20
2023-02-09T10:39:13.297Z,1026.17
2023-02-09T10:40:13.305Z,1026.18
2023-02-09T10:41:13.308Z,1026.22
2023-02-09T10:42:13.324Z,1026.20
2023-02-09T10:43:13.335Z,1026.12
2023-02-09T10:44:13.369Z,1026.11
2023-02-09T10:45:13.344Z,1026.08
2023-02-09T10:46:13.446Z,1026.09
2023-02-09T10:47:13.385Z,1026.07
2023-02-09T10:48:13.378Z,1026.04
2023-02-09T10:49:13.383Z,1026.09
2023-02-09T10:50:14.210Z,1026.10
2023-02-09T10:51:13.403Z,1026.13
2023-02-09T10:52:13.413Z,1026.13
2023-02-09T10:53:13.430Z,1026.10
2023-02-09T10:54:13.442Z,1026.11
2023-02-09T10:55:13.451Z,1026.09
2023-02-09T10:56:13.468Z,1026.08
2023-02-09T10:57:17.103Z,1026.10
2023-02-09T10:58:13.487Z,1026.06
2023-02-09T10:59:17.150Z,1026.05
2023-02-09T11:00:13.498Z,1026.04
2023-02-09T11:01:13.516Z,1026.00
2023-02-09T11:02:56.476Z,1025.98
2023-02-09T11:03:56.172Z,1025.96
2023-02-09T11:29:45.090Z,1025.69
2023-02-09T11:30:45.698Z,1025.63
2023-02-09T11:31:45.164Z,1025.61
2023-02-09T11:32:45.105Z,1025.60
2023-02-09T11:33:45.105Z,1025.61
2023-02-09T11:34:45.123Z,1025.59
2023-02-09T11:35:45.136Z,1025.58
2023-02-09T11:36:45.137Z,1025.60
2023-02-09T11:37:45.151Z,1025.61
2023-02-09T11:38:45.162Z,1025.58
2023-02-09T11:39:45.183Z,1025.56
2023-02-09T11:40:45.527Z,1025.54
2023-02-09T11:41:45.198Z,1025.57
2023-02-09T11:42:45.213Z,1025.48
2023-02-09T11:43:45.218Z,1025.42
2023-02-09T11:44:45.236Z,1025.39
2023-02-09T11:45:45.265Z,1025.37
2023-02-09T11:46:45.375Z,1025.37
2023-02-09T11:47:45.488Z,1025.33
2023-02-09T11:48:45.280Z,1025.33
2023-02-09T11:49:45.294Z,1025.35
2023-02-09T11:50:45.648Z,1025.42
2023-02-09T11:51:45.314Z,1025.43
2023-02-09T11:52:45.325Z,1025.38
2023-02-09T11:53:45.330Z,1025.39
2023-02-09T11:54:45.351Z,1025.37
2023-02-09T11:55:45.391Z,1025.45
2023-02-09T11:56:45.373Z,1025.43
2023-02-09T11:57:45.381Z,1025.46
2023-02-09T11:58:45.393Z,1025.49
2023-02-09T11:59:45.399Z,1025.46
2023-02-09T12:00:54.861Z,1025.50
2023-02-09T12:01:45.445Z,1025.47
2023-02-09T12:02:45.458Z,1025.46
2023-02-09T12:32:01.098Z,1025.31
2023-02-09T12:33:01.067Z,1025.27
2023-02-09T12:34:01.080Z,1025.24
2023-02-09T12:35:01.088Z,1025.30
2023-02-09T12:36:01.122Z,1025.28
2023-02-09T12:37:01.106Z,1025.24
2023-02-09T12:38:01.127Z,1025.23
2023-02-09T12:39:05.096Z,1025.28
2023-02-09T12:40:01.132Z,1025.27
2023-02-09T12:41:01.140Z,1025.29
2023-02-09T12:42:01.161Z,1025.30
2023-02-09T12:43:01.169Z,1025.28
2023-02-09T12:44:01.178Z,1025.25
2023-02-09T12:45:01.208Z,1025.23
2023-02-09T12:46:01.310Z,1025.25
2023-02-09T12:47:01.211Z,1025.20
2023-02-09T12:48:01.234Z,1025.19
2023-02-09T12:49:01.234Z,1025.16
2023-02-09T12:50:01.240Z,1025.15
2023-02-09T12:51:01.261Z,1025.14
2023-02-09T12:52:01.261Z,1025.09
2023-02-09T12:53:01.288Z,1025.04
2023-02-09T12:54:01.310Z,1024.96
2023-02-09T12:55:01.296Z,1024.96
2023-02-09T12:56:01.301Z,1024.89
2023-02-09T12:57:01.313Z,1024.87
2023-02-09T12:58:01.321Z,1024.83
2023-02-09T12:59:01.333Z,1024.83